createdAt,value
2023-03-26T00:02:23.279Z,31.82
2023-03-26T00:05:30.408Z,30.50
2023-03-26T00:08:36.803Z,35.63
2023-03-26T00:11:44.074Z,33.75
2023-03-26T00:14:51.107Z,30.88
2023-03-26T00:17:56.630Z,35.30
2023-03-26T00:21:02.615Z,32.17
2023-03-26T00:24:12.546Z,31.17
2023-03-26T00:27:17.648Z,35.13
2023-03-26T00:30:24.105Z,34.78
2023-03-26T00:33:30.748Z,35.13
2023-03-26T00:36:37.768Z,34.90
2023-03-26T00:39:46.749Z,40.60
2023-03-26T00:42:53.319Z,39.38
2023-03-26T00:46:03.847Z,34.33
2023-03-26T00:49:11.492Z,37.85
2023-03-26T00:52:18.082Z,40.45
2023-03-26T00:55:25.674Z,40.30
2023-03-26T00:58:32.611Z,39.35
2023-03-26T01:01:40.671Z,48.87
2023-03-26T01:04:51.678Z,41.80
2023-03-26T01:07:58.146Z,43.63
2023-03-26T01:11:05.284Z,47.13
2023-03-26T01:14:18.200Z,46.88
2023-03-26T01:17:23.940Z,42.73
2023-03-26T01:20:37.535Z,43.00
2023-03-26T01:23:46.781Z,45.23
2023-03-26T01:27:12.277Z,43.42
2023-03-26T01:30:45.611Z,47.38
2023-03-26T01:34:02.564Z,47.35
2023-03-26T01:37:42.518Z,46.35
2023-03-26T01:41:03.163Z,54.77
2023-03-26T01:44:43.289Z,48.80
2023-03-26T01:47:50.262Z,58.45
2023-03-26T01:50:58.965Z,55.25
2023-03-26T01:54:05.812Z,55.70
2023-03-26T01:57:18.983Z,54.77
2023-03-26T02:00:48.386Z,56.55
2023-03-26T02:04:05.185Z,54.88
2023-03-26T02:07:18.563Z,52.88
2023-03-26T02:10:42.538Z,55.52
2023-03-26T02:13:48.859Z,51.40
2023-03-26T02:16:55.352Z,52.93
2023-03-26T02:20:00.865Z,47.23
2023-03-26T02:23:07.952Z,47.15
2023-03-26T02:26:13.404Z,51.23
2023-03-26T02:29:30.488Z,48.50
2023-03-26T02:32:36.348Z,55.90
2023-03-26T02:35:43.613Z,53.92
2023-03-26T02:38:50.763Z,57.83
2023-03-26T02:41:56.926Z,55.45
2023-03-26T02:45:05.965Z,54.45
2023-03-26T02:48:29.592Z,57.27
2023-03-26T02:51:39.738Z,53.65
2023-03-26T02:54:53.910Z,53.83
2023-03-26T02:58:00.791Z,48.40
2023-03-26T03:01:12.429Z,53.80
2023-03-26T03:07:34.192Z,51.75
2023-03-26T03:10:41.244Z,55.12
2023-03-26T03:13:48.686Z,52.80
2023-03-26T03:16:57.659Z,53.35
2023-03-26T03:20:03.171Z,55.88
2023-03-26T03:23:09.524Z,48.65
2023-03-26T03:26:09.210Z,60.58
2023-03-26T03:29:20.678Z,48.25
2023-03-26T03:32:29.921Z,50.20
2023-03-26T03:35:36.582Z,54.58
2023-03-26T03:38:44.787Z,53.85
2023-03-26T03:41:52.363Z,55.33
2023-03-26T03:44:58.556Z,60.03
2023-03-26T03:48:16.573Z,60.17
2023-03-26T03:51:23.285Z,63.40
2023-03-26T03:54:31.671Z,58.78
2023-03-26T03:57:41.716Z,57.83
2023-03-26T04:00:52.104Z,55.73
2023-03-26T04:04:16.803Z,55.83
2023-03-26T04:07:34.282Z,56.10
2023-03-26T04:10:55.969Z,45.95
2023-03-26T04:14:08.553Z,43.65
2023-03-26T04:17:17.571Z,38.40
2023-03-26T04:20:26.129Z,39.70
2023-03-26T04:23:33.620Z,43.98
2023-03-26T04:26:42.242Z,38.95
2023-03-26T04:29:59.177Z,30.70
2023-03-26T04:33:07.630Z,28.47
2023-03-26T04:36:14.600Z,34.05
2023-03-26T04:39:21.210Z,32.90
2023-03-26T04:42:46.492Z,36.60
2023-03-26T04:45:59.874Z,37.00
2023-03-26T04:49:07.634Z,28.95
2023-03-26T04:52:13.737Z,30.77
2023-03-26T04:55:25.216Z,30.43
2023-03-26T04:58:34.426Z,30.10
2023-03-26T05:01:39.841Z,26.52
2023-03-26T05:04:50.356Z,25.48
2023-03-26T05:07:57.333Z,25.17
2023-03-26T05:11:04.379Z,27.98
2023-03-26T05:14:10.039Z,32.80
2023-03-26T05:17:17.989Z,27.80
2023-03-26T05:20:29.135Z,44.42
2023-03-26T05:23:36.473Z,34.58
2023-03-26T05:26:48.327Z,40.65
2023-03-26T05:29:57.399Z,45.00
2023-03-26T05:33:07.322Z,37.83
2023-03-26T05:36:25.848Z,30.88
2023-03-26T05:39:50.773Z,22.82
2023-03-26T05:43:05.085Z,23.80
2023-03-26T05:46:14.288Z,22.95
2023-03-26T05:49:21.020Z,18.90
2023-03-26T05:52:27.618Z,20.08
2023-03-26T05:55:55.438Z,16.87
2023-03-26T05:59:19.944Z,17.98
2023-03-26T06:02:43.903Z,17.50
2023-03-26T06:06:00.494Z,20.27
2023-03-26T06:09:11.928Z,16.30
2023-03-26T06:12:17.791Z,17.00
2023-03-26T06:15:25.653Z,15.53
2023-03-26T06:18:34.099Z,18.57
2023-03-26T06:21:42.366Z,16.45
2023-03-26T06:24:53.496Z,15.00
2023-03-26T06:28:19.795Z,15.40
2023-03-26T06:31:31.422Z,13.83
2023-03-26T06:34:50.032Z,12.98
2023-03-26T06:37:57.416Z,11.70
2023-03-26T06:41:05.512Z,13.50
2023-03-26T06:44:17.585Z,12.03
2023-03-26T06:47:43.660Z,13.38
2023-03-26T06:50:57.601Z,11.78
2023-03-26T06:54:07.796Z,12.23
2023-03-26T06:57:28.344Z,9.60
2023-03-26T07:00:50.504Z,9.73
2023-03-26T07:04:14.376Z,8.83
2023-03-26T07:07:45.765Z,12.60
2023-03-26T07:11:03.957Z,11.60
2023-03-26T07:14:22.826Z,11.45
2023-03-26T07:17:47.663Z,10.00
2023-03-26T07:20:56.038Z,12.20
2023-03-26T07:24:04.546Z,9.95
2023-03-26T07:27:31.147Z,9.88
2023-03-26T07:31:15.521Z,10.45
2023-03-26T07:34:45.338Z,19.02
2023-03-26T07:37:58.601Z,14.68
2023-03-26T07:41:32.779Z,15.98
2023-03-26T07:45:08.166Z,9.20
2023-03-26T07:48:36.785Z,9.43
2023-03-26T07:51:47.657Z,10.03
2023-03-26T07:54:58.223Z,7.08
2023-03-26T07:58:29.264Z,8.50
2023-03-26T08:02:27.667Z,6.40
2023-03-26T08:05:49.037Z,8.78
2023-03-26T08:09:25.651Z,6.20
2023-03-26T08:12:42.717Z,8.23
2023-03-26T08:15:56.414Z,7.03
2023-03-26T08:22:49.750Z,8.73
2023-03-26T08:26:17.575Z,5.25
2023-03-26T08:29:48.947Z,5.83
2023-03-26T08:32:57.211Z,7.72
2023-03-26T08:36:04.482Z,7.47
2023-03-26T08:39:10.938Z,4.97
2023-03-26T08:42:50.389Z,5.45
2023-03-26T08:46:03.912Z,5.92
2023-03-26T08:49:40.995Z,4.65
2023-03-26T08:53:32.031Z,6.30
2023-03-26T08:56:58.241Z,6.87
2023-03-26T09:00:35.779Z,6.92
2023-03-26T09:04:07.545Z,5.58
2023-03-26T09:07:54.401Z,6.78
2023-03-26T09:11:50.919Z,4.53
2023-03-26T09:15:37.724Z,5.50
2023-03-26T09:19:06.244Z,5.75
2023-03-26T09:22:47.313Z,5.60
2023-03-26T09:26:31.294Z,4.40
2023-03-26T09:30:25.382Z,4.55
2023-03-26T09:33:54.046Z,4.95
2023-03-26T09:37:34.550Z,4.42
2023-03-26T09:40:54.985Z,5.62
2023-03-26T09:44:53.231Z,3.60
2023-03-26T09:48:38.040Z,4.65
2023-03-26T09:51:55.065Z,5.28
2023-03-26T09:55:18.655Z,5.47
2023-03-26T09:58:45.257Z,5.90
2023-03-26T10:02:12.752Z,5.33
2023-03-26T10:05:52.733Z,5.42
2023-03-26T10:09:05.767Z,5.12
2023-03-26T10:12:25.498Z,6.22
2023-03-26T10:15:59.339Z,5.55
2023-03-26T10:19:27.415Z,4.95
2023-03-26T10:22:59.920Z,7.55
2023-03-26T10:26:41.154Z,4.75
2023-03-26T10:30:25.338Z,4.37
2023-03-26T10:33:53.272Z,5.40
2023-03-26T10:37:25.770Z,4.58
2023-03-26T10:40:57.185Z,3.05
2023-03-26T10:44:53.176Z,3.42
2023-03-26T10:48:15.690Z,3.02
2023-03-26T10:51:45.085Z,3.30
2023-03-26T10:55:18.509Z,3.35
2023-03-26T10:58:48.398Z,3.08
2023-03-26T11:02:19.690Z,3.05
2023-03-26T11:05:55.337Z,3.47
2023-03-26T11:09:37.100Z,2.60
2023-03-26T11:12:58.229Z,5.60
2023-03-26T11:16:16.813Z,5.45
2023-03-26T11:19:35.387Z,4.33
2023-03-26T11:22:54.132Z,3.65
2023-03-26T11:26:16.342Z,4.10
2023-03-26T11:29:57.729Z,4.53
2023-03-26T11:33:16.644Z,3.58
2023-03-26T11:36:35.763Z,4.92
2023-03-26T11:39:45.359Z,7.95
2023-03-26T11:42:52.000Z,9.35
2023-03-26T11:46:01.858Z,4.80
2023-03-26T11:49:18.460Z,7.40
2023-03-26T11:52:26.548Z,3.50
2023-03-26T11:55:35.443Z,4.60
2023-03-26T11:58:45.298Z,4.42
2023-03-26T12:02:13.576Z,5.40
2023-03-26T12:05:30.300Z,5.50
2023-03-26T12:08:46.323Z,4.25
2023-03-26T12:11:52.402Z,5.35
2023-03-26T12:14:58.903Z,3.47
2023-03-26T12:18:08.734Z,4.55
2023-03-26T12:21:30.585Z,5.22
2023-03-26T12:24:48.009Z,8.45
2023-03-26T12:28:01.928Z,5.75
2023-03-26T12:31:15.212Z,5.90
2023-03-26T12:34:32.096Z,5.08
2023-03-26T12:37:51.555Z,5.97
2023-03-26T12:40:58.938Z,5.37
2023-03-26T12:44:49.799Z,7.10
2023-03-26T12:48:00.156Z,6.22
2023-03-26T12:50:57.792Z,6.47
2023-03-26T12:54:47.207Z,7.67
2023-03-26T12:58:13.533Z,5.90
2023-03-26T13:01:25.070Z,7.33
2023-03-26T13:08:29.188Z,5.87
2023-03-26T13:12:09.774Z,6.05
2023-03-26T13:15:31.745Z,6.12
2023-03-26T13:18:52.064Z,6.90
2023-03-26T13:22:07.648Z,8.25
2023-03-26T13:25:31.237Z,11.12
2023-03-26T13:29:09.500Z,7.92
2023-03-26T13:32:26.647Z,10.53
2023-03-26T13:35:50.132Z,8.88
2023-03-26T13:42:35.164Z,10.32
2023-03-26T13:45:58.842Z,9.33
2023-03-26T13:49:12.969Z,8.23
2023-03-26T13:52:26.804Z,8.53
2023-03-26T13:55:52.461Z,6.83
2023-03-26T13:59:16.074Z,6.70
2023-03-26T14:02:30.587Z,7.70
2023-03-26T14:05:58.317Z,10.20
2023-03-26T14:09:12.602Z,24.30
2023-03-26T14:12:40.837Z,12.80
2023-03-26T14:16:19.768Z,9.03
2023-03-26T14:19:48.362Z,8.83
2023-03-26T14:23:24.727Z,9.03
2023-03-26T14:27:00.738Z,8.78
2023-03-26T14:30:43.377Z,8.93
2023-03-26T14:34:14.457Z,8.90
2023-03-26T14:37:39.455Z,9.18
2023-03-26T14:41:10.314Z,9.30
2023-03-26T14:44:47.615Z,9.60
2023-03-26T14:51:29.576Z,8.10
2023-03-26T14:54:38.557Z,8.30
2023-03-26T14:57:58.514Z,10.20
2023-03-26T15:01:28.665Z,22.50
2023-03-26T15:05:29.671Z,11.95
2023-03-26T15:09:18.739Z,10.35
2023-03-26T15:13:04.255Z,10.88
2023-03-26T15:16:28.215Z,10.05
2023-03-26T15:19:56.602Z,9.58
2023-03-26T15:23:23.574Z,11.12
2023-03-26T15:27:03.563Z,10.38
2023-03-26T15:30:41.733Z,11.10
2023-03-26T15:34:05.645Z,14.38
2023-03-26T15:37:41.698Z,14.47
2023-03-26T15:41:06.034Z,17.55
2023-03-26T15:44:24.834Z,15.15
2023-03-26T15:47:58.566Z,14.40
2023-03-26T15:51:20.914Z,6.55
2023-03-26T15:55:08.114Z,4.22
2023-03-26T15:58:30.745Z,7.87
2023-03-26T16:02:23.329Z,5.97
2023-03-26T16:06:13.779Z,16.25
2023-03-26T16:09:30.133Z,20.77
2023-03-26T16:12:53.676Z,15.75
2023-03-26T16:16:13.138Z,9.13
2023-03-26T16:19:52.620Z,10.45
2023-03-26T16:23:15.176Z,9.65
2023-03-26T16:26:38.817Z,11.00
2023-03-26T16:29:49.505Z,7.22
2023-03-26T16:33:02.037Z,7.30
2023-03-26T16:39:24.972Z,11.20
2023-03-26T16:42:53.667Z,12.95
2023-03-26T16:46:13.657Z,7.47
2023-03-26T16:49:40.033Z,20.88
2023-03-26T16:53:12.605Z,13.38
2023-03-26T16:56:45.582Z,8.23
2023-03-26T17:00:31.793Z,6.60
2023-03-26T17:04:00.843Z,11.35
2023-03-26T17:07:32.744Z,11.75
2023-03-26T17:10:57.845Z,10.05
2023-03-26T17:14:33.899Z,10.13
2023-03-26T17:17:54.628Z,10.18
2023-03-26T17:21:19.887Z,11.70
2023-03-26T17:28:51.518Z,11.90
2023-03-26T17:32:06.647Z,15.78
2023-03-26T17:35:15.513Z,14.20
2023-03-26T17:38:45.255Z,10.08
2023-03-26T17:42:11.301Z,11.10
2023-03-26T17:45:28.686Z,43.42
2023-03-26T17:48:36.413Z,15.53
2023-03-26T17:52:12.180Z,12.03
2023-03-26T17:55:18.472Z,11.20
2023-03-26T17:58:54.697Z,8.75
2023-03-26T18:02:02.755Z,11.33
2023-03-26T18:05:08.251Z,11.55
2023-03-26T18:08:59.516Z,7.83
2023-03-26T18:12:51.158Z,8.50
2023-03-26T18:16:08.505Z,10.85
2023-03-26T18:19:19.093Z,13.45
2023-03-26T18:22:40.382Z,16.35
2023-03-26T18:25:47.723Z,12.63
2023-03-26T18:29:01.367Z,12.40
2023-03-26T18:32:28.542Z,11.20
2023-03-26T18:35:35.493Z,8.85
2023-03-26T18:38:42.980Z,11.10
2023-03-26T18:41:52.589Z,11.57
2023-03-26T18:45:03.381Z,8.73
2023-03-26T18:48:17.578Z,10.23
2023-03-26T18:51:26.313Z,12.33
2023-03-26T18:54:34.599Z,9.40
2023-03-26T18:57:43.304Z,9.03
2023-03-26T19:00:52.442Z,9.93
2023-03-26T19:03:59.997Z,9.58
2023-03-26T19:07:05.510Z,11.10
2023-03-26T19:10:13.092Z,11.25
2023-03-26T19:13:23.013Z,9.75
2023-03-26T19:16:39.545Z,15.55
2023-03-26T19:19:50.061Z,12.43
2023-03-26T19:22:55.756Z,16.07
2023-03-26T19:26:05.740Z,13.50
2023-03-26T19:29:14.865Z,13.73
2023-03-26T19:32:38.601Z,12.25
2023-03-26T19:35:45.176Z,15.98
2023-03-26T19:39:04.311Z,17.10
2023-03-26T19:42:13.525Z,11.60
2023-03-26T19:45:21.243Z,14.60
2023-03-26T19:48:45.826Z,10.45
2023-03-26T19:51:48.206Z,9.75
2023-03-26T19:55:19.471Z,9.88
2023-03-26T19:58:27.768Z,9.33
2023-03-26T20:01:44.377Z,13.32
2023-03-26T20:04:50.183Z,8.05
2023-03-26T20:07:57.301Z,9.40
2023-03-26T20:11:03.650Z,8.55
2023-03-26T20:14:09.866Z,7.58
2023-03-26T20:17:16.520Z,15.43
2023-03-26T20:20:28.000Z,17.70
2023-03-26T20:23:34.508Z,14.50
2023-03-26T20:26:40.881Z,13.25
2023-03-26T20:29:46.971Z,15.75
2023-03-26T20:33:12.341Z,16.85
2023-03-26T20:36:08.866Z,16.62
2023-03-26T20:39:14.530Z,12.58
2023-03-26T20:42:21.299Z,13.10
2023-03-26T20:45:37.416Z,12.95
2023-03-26T20:48:45.526Z,11.22
2023-03-26T20:51:55.856Z,12.18
2023-03-26T20:55:02.910Z,13.98
2023-03-26T20:58:10.030Z,12.68
2023-03-26T21:01:17.343Z,11.85
2023-03-26T21:04:24.367Z,13.13
2023-03-26T21:07:30.313Z,13.68
2023-03-26T21:10:37.362Z,17.65
2023-03-26T21:13:52.751Z,23.30
2023-03-26T21:17:02.117Z,20.40
2023-03-26T21:20:11.678Z,16.93
2023-03-26T21:23:30.016Z,24.15
2023-03-26T21:27:00.351Z,31.65
2023-03-26T21:30:09.155Z,23.25
2023-03-26T21:33:15.105Z,34.27
2023-03-26T21:36:22.777Z,28.05
2023-03-26T21:39:28.940Z,23.45
2023-03-26T21:42:36.810Z,17.25
2023-03-26T21:45:44.635Z,13.10
2023-03-26T21:48:52.175Z,11.80
2023-03-26T21:51:59.216Z,14.25
2023-03-26T21:55:07.790Z,13.55
2023-03-26T21:58:35.449Z,11.93
2023-03-26T22:01:52.460Z,13.62
2023-03-26T22:05:11.019Z,15.85
2023-03-26T22:08:18.694Z,14.83
2023-03-26T22:11:25.266Z,13.98
2023-03-26T22:14:33.570Z,11.85
2023-03-26T22:17:39.503Z,12.00
2023-03-26T22:20:45.222Z,12.98
2023-03-26T22:23:54.464Z,13.10
2023-03-26T22:27:02.254Z,12.88
2023-03-26T22:30:07.592Z,14.83
2023-03-26T22:33:19.649Z,13.65
2023-03-26T22:36:26.990Z,13.00
2023-03-26T22:39:34.599Z,12.23
2023-03-26T22:42:41.700Z,10.15
2023-03-26T22:45:48.075Z,13.53
2023-03-26T22:48:58.523Z,12.93
2023-03-26T22:52:06.433Z,11.55
2023-03-26T22:55:13.879Z,12.65
2023-03-26T22:58:15.905Z,11.55
2023-03-26T23:01:27.045Z,10.80
2023-03-26T23:04:37.863Z,11.75
2023-03-26T23:07:44.591Z,11.95
2023-03-26T23:10:50.805Z,11.95
2023-03-26T23:13:56.990Z,10.90
2023-03-26T23:17:04.355Z,12.10
2023-03-26T23:20:12.895Z,26.57
2023-03-26T23:23:21.168Z,13.55
2023-03-26T23:26:32.760Z,16.37
2023-03-26T23:29:38.911Z,13.50
2023-03-26T23:32:38.890Z,11.75
2023-03-26T23:35:31.469Z,14.25
2023-03-26T23:38:43.653Z,15.25
2023-03-26T23:41:46.494Z,11.88
2023-03-26T23:44:54.854Z,12.28
2023-03-26T23:48:01.566Z,14.90
2023-03-26T23:51:10.108Z,15.28
2023-03-26T23:54:18.477Z,11.33
2023-03-26T23:57:25.068Z,15.53
